Caramat, Canada
Current Conditions -  °F | °C
As of 1:00 AM on Monday 22 Dec 2014 (Local Time) from CYGQ Reporting Station
Light Snow Light Snow  
Wind Chill: 26°   Ceiling: 1400
Heat Index: 34°   Visibility: 8mi
Dew Point: 32°   Wind: 9mph
Humidity: 93%   Direction: 170°S
Pressure: 29.84"   Gusts: NA
Location:  49.62°N, 86.15°W
Report Text: CYGQ 220600Z 17008KT 8SM -SN SCT011 OVC014 01/M00 A2984 RMKSF4SC4 CIG RAG SLP122
Loading
Personal Weather Stations






























Interactive Weather Map New forecast layout! Learn more

10-Day Weather Forecast

Advertisements
Track Severe Weather on mobile